createdAt,value
2022-10-21T00:00:38.710Z,35.97
2022-10-21T00:03:05.122Z,34.22
2022-10-21T00:05:31.546Z,36.63
2022-10-21T00:07:58.327Z,34.65
2022-10-21T00:10:24.809Z,33.70
2022-10-21T00:12:51.278Z,34.05
2022-10-21T00:15:17.711Z,36.83
2022-10-21T00:17:44.292Z,32.58
2022-10-21T00:20:12.982Z,30.60
2022-10-21T00:22:40.216Z,40.08
2022-10-21T00:25:07.323Z,34.28
2022-10-21T00:27:33.992Z,36.75
2022-10-21T00:30:00.446Z,39.33
2022-10-21T00:32:26.865Z,37.90
2022-10-21T00:34:53.360Z,37.85
2022-10-21T00:37:19.949Z,41.70
2022-10-21T00:39:46.514Z,34.53
2022-10-21T00:42:22.306Z,45.00
2022-10-21T00:45:06.591Z,36.60
2022-10-21T00:50:37.445Z,33.35
2022-10-21T00:53:09.608Z,43.92
2022-10-21T00:55:39.505Z,39.88
2022-10-21T00:58:06.176Z,34.38
2022-10-21T01:00:33.161Z,37.55
2022-10-21T01:02:59.985Z,35.00
2022-10-21T01:05:26.995Z,33.78
2022-10-21T01:07:53.548Z,32.28
2022-10-21T01:10:19.959Z,30.27
2022-10-21T01:13:07.712Z,32.08
2022-10-21T01:15:56.346Z,28.60
2022-10-21T01:18:25.359Z,30.33
2022-10-21T01:21:16.401Z,30.30
2022-10-21T01:24:10.429Z,30.80
2022-10-21T01:26:55.726Z,29.63
2022-10-21T01:29:40.966Z,30.17
2022-10-21T01:32:22.972Z,28.95
2022-10-21T01:35:08.007Z,29.40
2022-10-21T01:37:49.802Z,28.42
2022-10-21T01:40:41.540Z,29.17
2022-10-21T01:43:39.992Z,29.50
2022-10-21T01:46:18.869Z,28.30
2022-10-21T01:48:50.882Z,27.52
2022-10-21T01:51:19.071Z,28.95
2022-10-21T01:53:54.599Z,25.38
2022-10-21T01:56:22.070Z,25.88
2022-10-21T01:58:49.673Z,25.95
2022-10-21T02:01:17.839Z,26.67
2022-10-21T02:03:49.174Z,25.20
2022-10-21T02:08:42.823Z,25.63
2022-10-21T02:11:11.698Z,24.20
2022-10-21T02:13:48.812Z,25.50
2022-10-21T02:16:18.362Z,24.35
2022-10-21T02:18:44.762Z,24.52
2022-10-21T02:21:19.511Z,23.60
2022-10-21T02:23:52.496Z,22.85
2022-10-21T02:26:20.441Z,22.90
2022-10-21T02:28:47.678Z,21.98
2022-10-21T02:31:22.737Z,19.15
2022-10-21T02:34:17.864Z,18.23
2022-10-21T02:37:16.474Z,19.02
2022-10-21T02:39:58.921Z,15.23
2022-10-21T02:42:34.998Z,12.73
2022-10-21T02:45:02.491Z,14.57
2022-10-21T02:47:29.684Z,13.55
2022-10-21T02:49:56.103Z,11.18
2022-10-21T02:52:22.525Z,11.00
2022-10-21T02:54:48.874Z,10.77
2022-10-21T02:57:15.280Z,12.13
2022-10-21T02:59:41.659Z,12.25
2022-10-21T03:02:08.036Z,11.15
2022-10-21T03:04:34.466Z,10.35
2022-10-21T03:07:00.863Z,11.18
2022-10-21T03:09:27.229Z,15.45
2022-10-21T03:11:53.589Z,18.55
2022-10-21T03:14:19.954Z,20.85
2022-10-21T03:16:46.335Z,18.83
2022-10-21T03:19:12.746Z,19.67
2022-10-21T03:21:39.180Z,20.70
2022-10-21T03:24:11.003Z,23.27
2022-10-21T03:26:51.707Z,24.48
2022-10-21T03:29:18.064Z,23.63
2022-10-21T03:31:44.425Z,22.33
2022-10-21T03:34:10.808Z,20.98
2022-10-21T03:36:37.213Z,21.70
2022-10-21T03:39:03.737Z,24.48
2022-10-21T03:41:30.129Z,21.75
2022-10-21T03:43:56.505Z,23.23
2022-10-21T03:46:22.931Z,24.38
2022-10-21T03:48:49.320Z,24.52
2022-10-21T03:51:15.705Z,23.83
2022-10-21T03:53:43.560Z,22.48
2022-10-21T03:56:10.716Z,22.85
2022-10-21T03:58:37.116Z,21.52
2022-10-21T04:01:03.700Z,20.92
2022-10-21T04:03:30.416Z,20.88
2022-10-21T04:05:56.799Z,18.73
2022-10-21T04:08:23.205Z,21.52
2022-10-21T04:10:49.611Z,18.17
2022-10-21T04:13:16.121Z,18.25
2022-10-21T04:15:42.581Z,18.00
2022-10-21T04:18:08.941Z,17.23
2022-10-21T04:20:35.346Z,20.35
2022-10-21T04:23:02.084Z,19.90
2022-10-21T04:25:28.455Z,20.10
2022-10-21T04:27:54.818Z,19.10
2022-10-21T04:30:21.751Z,22.45
2022-10-21T04:32:48.295Z,20.98
2022-10-21T04:35:14.739Z,24.40
2022-10-21T04:37:41.157Z,25.70
2022-10-21T04:40:08.422Z,23.67
2022-10-21T04:42:34.869Z,23.55
2022-10-21T04:45:01.558Z,21.80
2022-10-21T04:47:27.949Z,21.05
2022-10-21T04:49:54.436Z,23.38
2022-10-21T04:52:20.806Z,22.58
2022-10-21T04:54:47.157Z,23.08
2022-10-21T04:57:14.055Z,27.13
2022-10-21T04:59:40.429Z,21.42
2022-10-21T05:02:06.794Z,23.38
2022-10-21T05:04:33.222Z,23.60
2022-10-21T05:06:59.576Z,24.25
2022-10-21T05:09:25.963Z,24.95
2022-10-21T05:11:52.358Z,26.38
2022-10-21T05:14:21.775Z,25.40
2022-10-21T05:16:49.512Z,24.98
2022-10-21T05:19:15.903Z,25.85
2022-10-21T05:21:42.290Z,24.20
2022-10-21T05:24:08.849Z,23.25
2022-10-21T05:26:35.220Z,22.52
2022-10-21T05:29:01.599Z,21.77
2022-10-21T05:31:28.047Z,21.67
2022-10-21T05:33:54.436Z,19.05
2022-10-21T05:36:23.887Z,18.67
2022-10-21T05:38:50.627Z,17.80
2022-10-21T05:41:17.100Z,16.23
2022-10-21T05:43:43.558Z,17.63
2022-10-21T05:46:10.126Z,16.27
2022-10-21T05:48:37.647Z,15.85
2022-10-21T05:51:05.160Z,15.32
2022-10-21T05:53:31.618Z,16.08
2022-10-21T05:56:04.300Z,15.70
2022-10-21T05:58:32.509Z,16.33
2022-10-21T06:00:59.382Z,15.57
2022-10-21T06:03:30.017Z,17.42
2022-10-21T06:06:01.600Z,17.77
2022-10-21T06:08:29.470Z,18.55
2022-10-21T06:11:08.312Z,18.27
2022-10-21T06:13:35.554Z,19.60
2022-10-21T06:16:02.722Z,19.85
2022-10-21T06:18:29.336Z,20.48
2022-10-21T06:20:55.824Z,20.52
2022-10-21T06:23:22.307Z,21.23
2022-10-21T06:26:15.522Z,21.20
2022-10-21T06:28:43.457Z,20.67
2022-10-21T06:31:13.692Z,16.17
2022-10-21T06:33:40.420Z,12.13
2022-10-21T06:36:07.182Z,18.33
2022-10-21T06:38:33.737Z,17.60
2022-10-21T06:41:09.172Z,17.17
2022-10-21T06:43:39.070Z,16.98
2022-10-21T06:46:07.766Z,17.40
2022-10-21T06:48:34.591Z,18.50
2022-10-21T06:51:07.109Z,19.42
2022-10-21T06:53:36.601Z,19.70
2022-10-21T06:56:09.657Z,23.55
2022-10-21T06:58:37.680Z,24.17
2022-10-21T07:01:21.489Z,24.40
2022-10-21T07:03:57.993Z,25.00
2022-10-21T07:06:24.915Z,24.95
2022-10-21T07:08:58.255Z,26.48
2022-10-21T07:11:25.954Z,25.73
2022-10-21T07:13:52.379Z,23.50
2022-10-21T07:16:25.126Z,25.92
2022-10-21T07:18:52.135Z,25.73
2022-10-21T07:21:20.483Z,27.20
2022-10-21T07:23:49.135Z,26.48
2022-10-21T07:26:15.739Z,26.67
2022-10-21T07:28:46.688Z,27.45
2022-10-21T07:31:22.232Z,27.05
2022-10-21T07:33:48.980Z,26.98
2022-10-21T07:36:24.390Z,25.52
2022-10-21T07:38:52.286Z,24.48
2022-10-21T07:41:22.093Z,27.02
2022-10-21T07:43:49.038Z,30.60
2022-10-21T07:46:16.562Z,27.27
2022-10-21T07:48:43.149Z,27.08
2022-10-21T07:51:12.812Z,30.65
2022-10-21T07:53:39.870Z,28.80
2022-10-21T07:56:18.393Z,26.02
2022-10-21T07:58:46.873Z,26.60
2022-10-21T08:01:15.447Z,25.25
2022-10-21T08:03:42.624Z,21.30
2022-10-21T08:06:11.548Z,20.23
2022-10-21T08:08:39.345Z,21.33
2022-10-21T08:11:06.645Z,19.23
2022-10-21T08:13:34.433Z,15.95
2022-10-21T08:16:01.990Z,16.60
2022-10-21T08:18:29.519Z,15.95
2022-10-21T08:20:55.963Z,15.00
2022-10-21T08:23:23.973Z,14.35
2022-10-21T08:25:52.990Z,13.48
2022-10-21T08:28:20.357Z,12.65
2022-10-21T08:30:46.809Z,12.38
2022-10-21T08:33:14.101Z,11.70
2022-10-21T08:35:42.071Z,10.07
2022-10-21T08:38:08.574Z,8.20
2022-10-21T08:40:38.370Z,8.48
2022-10-21T08:43:19.853Z,7.03
2022-10-21T08:45:54.701Z,6.53
2022-10-21T08:48:26.114Z,5.50
2022-10-21T08:50:56.190Z,5.70
2022-10-21T08:53:39.081Z,6.43
2022-10-21T08:56:13.476Z,5.38
2022-10-21T08:58:46.788Z,5.95
2022-10-21T09:01:29.289Z,6.07
2022-10-21T09:04:10.271Z,6.18
2022-10-21T09:07:06.014Z,6.75
2022-10-21T09:09:51.793Z,6.80
2022-10-21T09:12:41.330Z,8.50
2022-10-21T09:15:35.921Z,6.93
2022-10-21T09:18:37.016Z,7.40
2022-10-21T09:21:23.294Z,7.72
2022-10-21T09:24:12.847Z,8.02
2022-10-21T09:26:47.164Z,7.05
2022-10-21T09:29:16.251Z,7.10
2022-10-21T09:31:43.892Z,10.70
2022-10-21T09:34:52.015Z,10.23
2022-10-21T09:37:34.743Z,12.00
2022-10-21T09:40:24.081Z,12.10
2022-10-21T09:42:53.031Z,10.55
2022-10-21T09:45:26.653Z,11.48
2022-10-21T09:48:03.504Z,10.40
2022-10-21T09:53:14.508Z,11.35
2022-10-21T09:55:41.492Z,9.98
2022-10-21T09:58:07.926Z,10.77
2022-10-21T10:00:49.997Z,9.85
2022-10-21T10:03:43.701Z,8.63
2022-10-21T10:06:10.206Z,5.90
2022-10-21T10:08:47.508Z,4.68
2022-10-21T10:11:17.521Z,5.53
2022-10-21T10:13:45.515Z,5.65
2022-10-21T10:16:22.872Z,5.70
2022-10-21T10:18:51.825Z,5.53
2022-10-21T10:21:20.783Z,5.00
2022-10-21T10:23:56.042Z,5.78
2022-10-21T10:26:25.946Z,5.43
2022-10-21T10:28:56.644Z,5.38
2022-10-21T10:31:30.433Z,5.10
2022-10-21T10:34:00.837Z,4.90
2022-10-21T10:36:34.778Z,5.32
2022-10-21T10:39:03.828Z,4.40
2022-10-21T10:41:37.143Z,4.18
2022-10-21T10:44:10.749Z,4.20
2022-10-21T10:46:38.751Z,3.50
2022-10-21T10:49:19.034Z,4.03
2022-10-21T10:51:46.878Z,4.95
2022-10-21T10:54:40.476Z,3.47
2022-10-21T10:57:20.108Z,3.08
2022-10-21T11:00:01.457Z,3.28
2022-10-21T11:02:36.897Z,3.00
2022-10-21T11:05:08.910Z,3.17
2022-10-21T11:07:44.440Z,3.22
2022-10-21T11:10:19.716Z,3.70
2022-10-21T11:12:46.095Z,3.85
2022-10-21T11:15:15.013Z,2.83
2022-10-21T11:17:50.973Z,2.58
2022-10-21T11:20:30.321Z,3.33
2022-10-21T11:23:15.649Z,3.30
2022-10-21T11:26:02.993Z,3.08
2022-10-21T11:28:44.290Z,2.58
2022-10-21T11:34:13.514Z,2.67
2022-10-21T11:37:00.864Z,2.75
2022-10-21T11:39:54.576Z,2.97
2022-10-21T11:42:37.962Z,2.70
2022-10-21T11:45:28.709Z,2.92
2022-10-21T11:47:58.092Z,2.35
2022-10-21T11:50:49.096Z,2.92
2022-10-21T11:53:40.957Z,2.47
2022-10-21T11:56:27.575Z,2.72
2022-10-21T11:59:07.498Z,2.60
2022-10-21T12:01:51.080Z,2.45
2022-10-21T12:04:53.954Z,2.75
2022-10-21T12:07:56.363Z,2.58
2022-10-21T12:10:30.292Z,2.70
2022-10-21T12:13:02.347Z,2.97
2022-10-21T12:15:36.458Z,2.63
2022-10-21T12:18:04.972Z,2.05
2022-10-21T12:20:32.507Z,2.50
2022-10-21T12:23:03.472Z,2.03
2022-10-21T12:25:42.462Z,2.20
2022-10-21T12:28:18.496Z,2.80
2022-10-21T12:30:55.399Z,2.22
2022-10-21T12:33:37.176Z,2.38
2022-10-21T12:36:22.514Z,1.73
2022-10-21T12:38:52.183Z,1.63
2022-10-21T12:41:24.581Z,2.17
2022-10-21T12:44:03.220Z,1.98
2022-10-21T12:46:51.807Z,1.98
2022-10-21T12:49:22.488Z,1.65
2022-10-21T12:52:21.190Z,2.10
2022-10-21T12:55:02.682Z,1.83
2022-10-21T12:57:33.256Z,1.60
2022-10-21T13:00:27.991Z,1.60
2022-10-21T13:03:20.155Z,1.88
2022-10-21T13:05:46.501Z,1.75
2022-10-21T13:08:29.193Z,1.65
2022-10-21T13:11:04.753Z,1.42
2022-10-21T13:13:44.997Z,1.25
2022-10-21T13:16:20.698Z,1.23
2022-10-21T13:19:00.758Z,1.48
2022-10-21T13:21:29.851Z,1.60
2022-10-21T13:24:05.606Z,1.25
2022-10-21T13:26:32.590Z,1.30
2022-10-21T13:29:17.688Z,1.52
2022-10-21T13:31:44.185Z,1.05
2022-10-21T13:34:29.154Z,1.23
2022-10-21T13:36:56.688Z,1.38
2022-10-21T13:39:31.270Z,1.70
2022-10-21T13:42:07.769Z,1.50
2022-10-21T13:44:37.984Z,1.88
2022-10-21T13:47:30.960Z,1.30
2022-10-21T13:50:05.401Z,1.52
2022-10-21T13:52:32.058Z,2.30
2022-10-21T13:54:59.921Z,1.60
2022-10-21T13:57:34.216Z,1.00
2022-10-21T14:00:07.217Z,1.10
2022-10-21T14:02:33.889Z,1.10
2022-10-21T14:05:00.875Z,1.00
2022-10-21T14:07:27.988Z,0.80
2022-10-21T14:09:57.586Z,1.20
2022-10-21T14:12:41.630Z,1.02
2022-10-21T14:15:18.100Z,1.30
2022-10-21T14:17:51.966Z,1.15
2022-10-21T14:20:27.862Z,1.10
2022-10-21T14:22:55.177Z,0.93
2022-10-21T14:25:21.919Z,1.02
2022-10-21T14:27:49.529Z,0.90
2022-10-21T14:30:28.306Z,1.00
2022-10-21T14:32:58.172Z,1.00
2022-10-21T14:35:28.086Z,1.10
2022-10-21T14:37:59.923Z,1.20
2022-10-21T14:40:40.754Z,1.20
2022-10-21T14:43:20.328Z,1.05
2022-10-21T14:45:49.419Z,1.00
2022-10-21T14:48:28.713Z,0.95
2022-10-21T14:51:01.782Z,0.80
2022-10-21T14:53:34.621Z,1.30
2022-10-21T14:56:04.269Z,1.15
2022-10-21T14:58:36.575Z,0.80
2022-10-21T15:01:14.119Z,1.05
2022-10-21T15:03:49.353Z,0.80
2022-10-21T15:06:23.674Z,0.90
2022-10-21T15:08:56.514Z,0.63
2022-10-21T15:11:25.847Z,0.77
2022-10-21T15:14:04.393Z,1.20
2022-10-21T15:16:31.876Z,0.70
2022-10-21T15:19:05.540Z,0.68
2022-10-21T15:21:45.113Z,0.93
2022-10-21T15:24:20.159Z,1.50
2022-10-21T15:26:49.702Z,3.22
2022-10-21T15:29:27.323Z,1.05
2022-10-21T15:31:56.661Z,1.15
2022-10-21T15:34:23.173Z,0.63
2022-10-21T15:36:49.579Z,1.08
2022-10-21T15:39:16.056Z,4.10
2022-10-21T15:41:42.668Z,1.70
2022-10-21T15:44:21.078Z,1.95
2022-10-21T15:46:50.238Z,2.40
2022-10-21T15:49:22.416Z,3.58
2022-10-21T15:51:50.174Z,2.85
2022-10-21T15:54:18.283Z,3.05
2022-10-21T15:56:47.253Z,25.73
2022-10-21T15:59:22.362Z,3.83
2022-10-21T16:01:50.092Z,3.33
2022-10-21T16:04:17.213Z,3.83
2022-10-21T16:06:48.244Z,3.42
2022-10-21T16:09:20.557Z,4.75
2022-10-21T16:12:01.437Z,6.43
2022-10-21T16:14:30.104Z,3.67
2022-10-21T16:17:00.858Z,4.28
2022-10-21T16:19:28.521Z,3.67
2022-10-21T16:21:56.052Z,3.88
2022-10-21T16:24:22.469Z,4.18
2022-10-21T16:26:49.794Z,4.10
2022-10-21T16:29:19.899Z,3.72
2022-10-21T16:31:46.845Z,3.65
2022-10-21T16:34:13.270Z,3.50
2022-10-21T16:36:39.794Z,3.10
2022-10-21T16:39:25.214Z,3.47
2022-10-21T16:41:51.920Z,10.02
2022-10-21T16:44:18.743Z,6.07
2022-10-21T16:46:55.457Z,3.70
2022-10-21T16:49:27.808Z,2.97
2022-10-21T16:51:55.063Z,2.85
2022-10-21T16:54:22.969Z,2.83
2022-10-21T16:56:52.129Z,3.75
2022-10-21T16:59:21.266Z,3.13
2022-10-21T17:01:47.628Z,2.70
2022-10-21T17:04:14.422Z,3.30
2022-10-21T17:06:41.126Z,3.50
2022-10-21T17:09:07.577Z,4.25
2022-10-21T17:11:36.765Z,5.40
2022-10-21T17:14:06.202Z,5.30
2022-10-21T17:16:32.646Z,4.93
2022-10-21T17:18:59.018Z,6.20
2022-10-21T17:21:31.304Z,6.25
2022-10-21T17:23:59.516Z,4.78
2022-10-21T17:26:26.002Z,4.18
2022-10-21T17:28:53.623Z,4.28
2022-10-21T17:31:22.691Z,4.05
2022-10-21T17:33:51.039Z,3.58
2022-10-21T17:36:18.152Z,4.82
2022-10-21T17:38:44.744Z,6.15
2022-10-21T17:41:12.931Z,4.38
2022-10-21T17:43:39.422Z,5.00
2022-10-21T17:46:06.107Z,4.78
2022-10-21T17:48:33.195Z,4.72
2022-10-21T17:51:01.859Z,4.72
2022-10-21T17:53:30.320Z,4.90
2022-10-21T17:56:01.720Z,3.97
2022-10-21T17:58:28.996Z,4.53
2022-10-21T18:00:58.989Z,3.55
2022-10-21T18:03:27.562Z,3.58
2022-10-21T18:05:55.983Z,2.75
2022-10-21T18:08:23.731Z,4.82
2022-10-21T18:10:58.202Z,5.43
2022-10-21T18:13:27.125Z,3.17
2022-10-21T18:15:55.792Z,4.30
2022-10-21T18:18:23.195Z,3.08
2022-10-21T18:20:50.450Z,3.13
2022-10-21T18:23:17.454Z,3.00
2022-10-21T18:25:43.981Z,3.60
2022-10-21T18:28:10.492Z,5.25
2022-10-21T18:30:42.756Z,10.57
2022-10-21T18:33:09.515Z,5.55
2022-10-21T18:35:36.195Z,4.20
2022-10-21T18:38:02.659Z,4.10
2022-10-21T18:40:29.467Z,5.88
2022-10-21T18:42:56.003Z,5.30
2022-10-21T18:45:22.698Z,4.78
2022-10-21T18:47:51.122Z,8.70
2022-10-21T18:50:17.642Z,5.70
2022-10-21T18:52:44.028Z,6.93
2022-10-21T18:55:10.406Z,6.40
2022-10-21T18:57:36.966Z,7.63
2022-10-21T19:00:04.966Z,7.45
2022-10-21T19:02:31.333Z,6.72
2022-10-21T19:04:59.745Z,7.07
2022-10-21T19:07:28.641Z,9.75
2022-10-21T19:09:55.002Z,8.98
2022-10-21T19:12:23.545Z,10.35
2022-10-21T19:14:50.352Z,7.57
2022-10-21T19:17:16.926Z,9.20
2022-10-21T19:19:43.345Z,11.57
2022-10-21T19:22:09.805Z,17.13
2022-10-21T19:24:36.198Z,10.52
2022-10-21T19:27:02.608Z,8.18
2022-10-21T19:29:29.134Z,7.22
2022-10-21T19:31:56.810Z,7.63
2022-10-21T19:34:26.669Z,9.57
2022-10-21T19:36:53.053Z,8.48
2022-10-21T19:39:19.955Z,8.38
2022-10-21T19:41:46.539Z,5.93
2022-10-21T19:44:13.441Z,6.53
2022-10-21T19:46:40.019Z,4.97
2022-10-21T19:49:08.616Z,6.75
2022-10-21T19:51:36.570Z,5.72
2022-10-21T19:54:05.189Z,4.10
2022-10-21T19:56:34.030Z,4.45
2022-10-21T19:59:02.728Z,7.40
2022-10-21T20:01:30.184Z,5.18
2022-10-21T20:03:56.775Z,4.72
2022-10-21T20:06:24.703Z,4.35
2022-10-21T20:08:53.585Z,4.55
2022-10-21T20:11:21.725Z,4.65
2022-10-21T20:13:50.152Z,4.10
2022-10-21T20:16:22.609Z,4.50
2022-10-21T20:18:49.551Z,5.13
2022-10-21T20:21:16.228Z,5.05
2022-10-21T20:23:42.689Z,4.72
2022-10-21T20:26:09.327Z,4.53
2022-10-21T20:28:36.230Z,4.13
2022-10-21T20:31:06.443Z,5.60
2022-10-21T20:33:35.391Z,4.85
2022-10-21T20:36:07.352Z,4.13
2022-10-21T20:38:34.002Z,3.70
2022-10-21T20:41:02.949Z,4.07
2022-10-21T20:43:29.822Z,3.40
2022-10-21T20:45:56.183Z,3.45
2022-10-21T20:48:22.585Z,3.42
2022-10-21T20:50:48.957Z,5.72
2022-10-21T20:53:15.308Z,4.20
2022-10-21T20:55:42.781Z,4.03
2022-10-21T20:58:09.150Z,4.15
2022-10-21T21:00:37.211Z,2.85
2022-10-21T21:03:03.713Z,3.25
2022-10-21T21:05:30.067Z,4.15
2022-10-21T21:07:56.421Z,4.15
2022-10-21T21:10:22.849Z,3.22
2022-10-21T21:12:49.250Z,3.40
2022-10-21T21:15:15.693Z,5.13
2022-10-21T21:17:42.030Z,4.20
2022-10-21T21:20:09.018Z,3.30
2022-10-21T21:22:36.939Z,3.40
2022-10-21T21:25:04.198Z,3.83
2022-10-21T21:27:30.579Z,3.92
2022-10-21T21:29:57.011Z,3.90
2022-10-21T21:32:23.438Z,3.42
2022-10-21T21:34:54.895Z,4.25
2022-10-21T21:37:22.783Z,3.95
2022-10-21T21:39:49.254Z,4.72
2022-10-21T21:42:15.823Z,4.45
2022-10-21T21:44:42.194Z,3.60
2022-10-21T21:47:08.630Z,3.35
2022-10-21T21:49:35.016Z,4.05
2022-10-21T21:52:01.409Z,3.63
2022-10-21T21:54:27.762Z,4.07
2022-10-21T21:57:00.635Z,3.70
2022-10-21T21:59:40.483Z,3.78
2022-10-21T22:02:06.843Z,4.32
2022-10-21T22:04:34.154Z,3.90
2022-10-21T22:07:02.861Z,4.25
2022-10-21T22:09:29.529Z,3.88
2022-10-21T22:11:55.885Z,3.45
2022-10-21T22:14:22.224Z,3.35
2022-10-21T22:16:48.600Z,3.10
2022-10-21T22:19:14.952Z,3.50
2022-10-21T22:21:41.298Z,3.38
2022-10-21T22:24:07.647Z,3.30
2022-10-21T22:26:34.027Z,3.25
2022-10-21T22:29:00.381Z,3.70
2022-10-21T22:31:29.512Z,3.83
2022-10-21T22:33:58.225Z,3.75
2022-10-21T22:36:24.609Z,4.47
2022-10-21T22:38:50.945Z,3.50
2022-10-21T22:41:17.311Z,3.40
2022-10-21T22:43:43.798Z,3.47
2022-10-21T22:46:22.220Z,3.30
2022-10-21T22:48:56.946Z,3.08
2022-10-21T22:51:23.444Z,3.33
2022-10-21T22:53:55.174Z,3.63
2022-10-21T22:56:24.556Z,3.67
2022-10-21T22:58:50.990Z,3.90
2022-10-21T23:01:20.956Z,4.53
2022-10-21T23:03:47.369Z,4.10
2022-10-21T23:06:13.892Z,4.15
2022-10-21T23:08:40.348Z,4.30
2022-10-21T23:11:06.722Z,3.78
2022-10-21T23:13:33.307Z,3.55
2022-10-21T23:15:59.676Z,4.30
2022-10-21T23:18:26.193Z,4.25
2022-10-21T23:20:53.798Z,4.55
2022-10-21T23:23:20.281Z,4.18
2022-10-21T23:25:46.642Z,4.43
2022-10-21T23:28:13.607Z,4.78
2022-10-21T23:30:40.640Z,4.72
2022-10-21T23:33:06.994Z,4.43
2022-10-21T23:35:33.349Z,4.00
2022-10-21T23:37:59.772Z,2.80
2022-10-21T23:40:26.812Z,2.10
2022-10-21T23:42:53.619Z,1.75
2022-10-21T23:45:20.098Z,1.75
2022-10-21T23:47:46.629Z,1.48
2022-10-21T23:50:13.475Z,1.35
2022-10-21T23:52:39.935Z,1.48
2022-10-21T23:55:07.650Z,1.55
2022-10-21T23:57:34.253Z,1.50
